createdAt,value
2022-12-18T00:02:02.374Z,-5.57
2022-12-18T00:06:04.003Z,-5.59
2022-12-18T00:10:06.104Z,-5.62
2022-12-18T00:14:07.546Z,-5.63
2022-12-18T00:18:09.843Z,-5.52
2022-12-18T00:22:11.287Z,-5.56
2022-12-18T00:26:19.806Z,-5.50
2022-12-18T00:30:21.462Z,-5.52
2022-12-18T00:34:23.233Z,-5.39
2022-12-18T00:38:25.088Z,-5.49
2022-12-18T00:42:45.110Z,-5.73
2022-12-18T00:46:47.786Z,-5.50
2022-12-18T00:50:50.551Z,-5.54
2022-12-18T00:54:52.011Z,-5.50
2022-12-18T00:58:53.464Z,-5.86
2022-12-18T01:02:55.053Z,-5.74
2022-12-18T01:06:56.683Z,-5.63
2022-12-18T01:10:58.106Z,-5.59
2022-12-18T01:15:00.633Z,-5.60
2022-12-18T01:19:02.060Z,-5.65
2022-12-18T01:23:03.512Z,-5.59
2022-12-18T01:27:04.980Z,-5.58
2022-12-18T01:31:25.300Z,-5.63
2022-12-18T01:35:26.811Z,-5.93
2022-12-18T01:39:29.113Z,-5.95
2022-12-18T01:43:57.850Z,-5.91
2022-12-18T01:48:03.106Z,-5.91
2022-12-18T01:52:04.554Z,-6.09
2022-12-18T01:56:06.382Z,-6.13
2022-12-18T02:00:14.858Z,-5.99
2022-12-18T02:04:25.195Z,-5.80
2022-12-18T02:08:42.574Z,-5.96
2022-12-18T02:12:53.519Z,-6.01
2022-12-18T02:17:04.483Z,-5.76
2022-12-18T02:21:20.452Z,-5.82
2022-12-18T02:25:40.256Z,-5.86
2022-12-18T02:29:57.618Z,-5.72
2022-12-18T02:34:04.133Z,-5.83
2022-12-18T02:38:13.381Z,-5.70
2022-12-18T02:42:18.490Z,-5.51
2022-12-18T02:46:47.369Z,-5.61
2022-12-18T02:51:05.162Z,-5.64
2022-12-18T02:55:41.375Z,-5.72
2022-12-18T03:00:17.426Z,-5.65
2022-12-18T03:04:29.074Z,-5.64
2022-12-18T03:08:39.048Z,-5.52
2022-12-18T03:12:48.666Z,-5.44
2022-12-18T03:16:52.236Z,-5.47
2022-12-18T03:20:59.274Z,-5.28
2022-12-18T03:25:05.153Z,-5.29
2022-12-18T03:29:25.173Z,-5.44
2022-12-18T03:33:33.707Z,-5.44
2022-12-18T03:37:35.770Z,-5.14
2022-12-18T03:41:46.520Z,-5.29
2022-12-18T03:46:18.219Z,-5.36
2022-12-18T03:50:31.234Z,-5.48
2022-12-18T03:54:34.839Z,-5.48
2022-12-18T03:58:46.605Z,-5.42
2022-12-18T04:02:55.457Z,-5.15
2022-12-18T04:07:05.406Z,-5.55
2022-12-18T04:11:09.530Z,-5.49
2022-12-18T04:15:12.420Z,-5.58
2022-12-18T04:19:13.960Z,-5.23
2022-12-18T04:23:18.079Z,-5.74
2022-12-18T04:27:20.519Z,-5.75
2022-12-18T04:31:25.019Z,-5.89
2022-12-18T04:35:26.527Z,-5.64
2022-12-18T04:39:28.014Z,-5.81
2022-12-18T04:43:33.842Z,-5.76
2022-12-18T04:47:35.440Z,-5.69
2022-12-18T04:51:38.455Z,-5.63
2022-12-18T04:55:39.870Z,-5.81
2022-12-18T04:59:41.362Z,-5.59
2022-12-18T05:03:44.118Z,-5.59
2022-12-18T05:07:45.835Z,-5.52
2022-12-18T05:11:47.888Z,-5.57
2022-12-18T05:15:53.542Z,-5.35
2022-12-18T05:19:54.993Z,-5.44
2022-12-18T05:23:56.459Z,-5.51
2022-12-18T05:27:57.970Z,-5.48
2022-12-18T05:31:59.601Z,-5.35
2022-12-18T05:36:03.354Z,-5.58
2022-12-18T05:40:05.538Z,-5.47
2022-12-18T05:44:06.983Z,-5.61
2022-12-18T05:48:13.419Z,-5.32
2022-12-18T05:52:15.164Z,-5.13
2022-12-18T05:56:22.766Z,-5.48
2022-12-18T06:00:24.163Z,-5.14
2022-12-18T06:04:28.511Z,-5.29
2022-12-18T06:08:30.064Z,-5.47
2022-12-18T06:12:31.760Z,-5.37
2022-12-18T06:16:33.846Z,-5.58
2022-12-18T06:20:37.464Z,-5.58
2022-12-18T06:24:38.913Z,-5.61
2022-12-18T06:28:40.733Z,-5.52
2022-12-18T06:32:42.179Z,-5.47
2022-12-18T06:36:43.637Z,-5.53
2022-12-18T06:40:46.128Z,-5.52
2022-12-18T06:44:47.601Z,-5.50
2022-12-18T06:48:52.412Z,-5.44
2022-12-18T06:52:53.809Z,-5.71
2022-12-18T06:56:57.099Z,-5.45
2022-12-18T07:01:02.669Z,-5.53
2022-12-18T07:05:10.275Z,-5.83
2022-12-18T07:09:12.295Z,-5.85
2022-12-18T07:13:13.687Z,-5.71
2022-12-18T07:17:15.212Z,-5.80
2022-12-18T07:21:20.194Z,-5.60
2022-12-18T07:25:22.219Z,-5.77
2022-12-18T07:29:23.815Z,-5.63
2022-12-18T07:33:26.048Z,-5.66
2022-12-18T07:37:28.056Z,-5.53
2022-12-18T07:41:29.574Z,-5.46
2022-12-18T07:45:31.161Z,-5.71
2022-12-18T07:49:32.726Z,-5.89
2022-12-18T07:53:35.449Z,-5.70
2022-12-18T07:57:56.379Z,-5.66
2022-12-18T08:01:58.379Z,-5.78
2022-12-18T08:06:02.008Z,-5.49
2022-12-18T08:10:03.784Z,-5.40
2022-12-18T08:14:05.557Z,-5.14
2022-12-18T08:18:10.177Z,-5.07
2022-12-18T08:22:15.389Z,-5.07
2022-12-18T08:26:17.274Z,-4.98
2022-12-18T08:30:18.999Z,-4.98
2022-12-18T08:34:20.866Z,-5.01
2022-12-18T08:38:24.210Z,-4.90
2022-12-18T08:42:44.804Z,-4.91
2022-12-18T08:46:46.304Z,-5.22
2022-12-18T08:50:58.114Z,-4.67
2022-12-18T08:54:59.706Z,-4.70
2022-12-18T08:59:01.254Z,-4.94
2022-12-18T09:03:03.023Z,-4.85
2022-12-18T09:07:04.450Z,-4.59
2022-12-18T09:11:13.629Z,-4.73
2022-12-18T09:15:15.105Z,-4.49
2022-12-18T09:19:17.311Z,-4.40
2022-12-18T09:23:18.744Z,-4.47
2022-12-18T09:27:20.245Z,-4.02
2022-12-18T09:31:24.352Z,-4.16
2022-12-18T09:35:25.890Z,-4.19
2022-12-18T09:39:27.334Z,-4.39
2022-12-18T09:44:00.487Z,-3.91
2022-12-18T09:48:02.672Z,-3.71
2022-12-18T09:52:10.177Z,-3.77
2022-12-18T09:56:19.255Z,-3.40
2022-12-18T10:00:23.376Z,-3.41
2022-12-18T10:04:26.013Z,-3.37
2022-12-18T10:08:39.091Z,-3.07
2022-12-18T10:13:00.989Z,-3.24
2022-12-18T10:17:43.047Z,-3.24
2022-12-18T10:21:50.409Z,-3.38
2022-12-18T10:26:05.090Z,-3.20
2022-12-18T10:30:18.393Z,-2.75
2022-12-18T10:34:19.909Z,-2.80
2022-12-18T10:38:27.311Z,-2.41
2022-12-18T10:42:30.135Z,-2.53
2022-12-18T10:46:31.680Z,-2.65
2022-12-18T10:51:09.050Z,-2.28
2022-12-18T10:55:02.638Z,-2.42
2022-12-18T10:59:06.767Z,-2.42
2022-12-18T11:03:31.069Z,-1.93
2022-12-18T11:07:59.529Z,-2.09
2022-12-18T11:12:07.153Z,-2.42
2022-12-18T11:16:08.715Z,-1.98
2022-12-18T11:20:32.600Z,-1.91
2022-12-18T11:24:37.631Z,-1.92
2022-12-18T11:28:44.741Z,-1.67
2022-12-18T11:32:50.749Z,-2.07
2022-12-18T11:36:53.195Z,-2.23
2022-12-18T11:41:04.639Z,-2.13
2022-12-18T11:45:12.305Z,-2.00
2022-12-18T11:49:20.983Z,-2.11
2022-12-18T11:53:23.492Z,-2.21
2022-12-18T11:57:43.369Z,-1.87
2022-12-18T12:01:52.376Z,-1.99
2022-12-18T12:06:08.977Z,-2.20
2022-12-18T12:10:28.347Z,-1.99
2022-12-18T12:15:07.597Z,-2.23
2022-12-18T12:19:43.833Z,-1.81
2022-12-18T12:24:06.164Z,-1.93
2022-12-18T12:28:20.222Z,-1.82
2022-12-18T12:32:34.418Z,-2.17
2022-12-18T12:36:38.606Z,-1.71
2022-12-18T12:40:56.634Z,-1.84
2022-12-18T12:45:06.714Z,-1.48
2022-12-18T12:49:16.517Z,-1.59
2022-12-18T12:53:30.042Z,-1.96
2022-12-18T12:57:44.089Z,-2.02
2022-12-18T13:02:13.096Z,-2.22
2022-12-18T13:06:44.287Z,-2.41
2022-12-18T13:10:46.097Z,-2.25
2022-12-18T13:14:47.525Z,-2.43
2022-12-18T13:18:55.250Z,-2.24
2022-12-18T13:22:57.019Z,-2.50
2022-12-18T13:26:58.548Z,-2.51
2022-12-18T13:31:03.426Z,-2.53
2022-12-18T13:35:23.027Z,-2.52
2022-12-18T13:39:35.356Z,-2.71
2022-12-18T13:43:45.137Z,-2.43
2022-12-18T13:47:46.840Z,-2.42
2022-12-18T13:51:51.627Z,-2.22
2022-12-18T13:55:54.160Z,-1.92
2022-12-18T13:59:56.712Z,-2.05
2022-12-18T14:04:22.053Z,-2.35
2022-12-18T14:08:24.452Z,-2.25
2022-12-18T14:12:49.291Z,-2.32
2022-12-18T14:16:51.445Z,-2.77
2022-12-18T14:20:57.681Z,-2.64
2022-12-18T14:25:29.077Z,-2.87
2022-12-18T14:29:31.943Z,-2.64
2022-12-18T14:33:33.387Z,-2.64
2022-12-18T14:37:34.807Z,-2.71
2022-12-18T14:41:36.298Z,-3.03
2022-12-18T14:45:45.407Z,-2.80
2022-12-18T14:49:47.500Z,-3.42
2022-12-18T14:53:55.948Z,-3.28
2022-12-18T14:57:58.483Z,-3.29
2022-12-18T15:02:27.686Z,-3.20
2022-12-18T15:06:33.220Z,-3.03
2022-12-18T15:10:35.412Z,-3.04
2022-12-18T15:14:41.924Z,-3.14
2022-12-18T15:18:46.100Z,-3.17
2022-12-18T15:22:48.233Z,-2.92
2022-12-18T15:26:49.934Z,-3.05
2022-12-18T15:31:01.152Z,-3.18
2022-12-18T15:35:11.873Z,-3.01
2022-12-18T15:39:14.057Z,-3.16
2022-12-18T15:43:34.203Z,-3.18
2022-12-18T15:47:35.629Z,-3.19
2022-12-18T15:51:38.197Z,-3.29
2022-12-18T15:56:01.172Z,-3.15
2022-12-18T16:00:03.156Z,-2.85
2022-12-18T16:04:06.498Z,-2.80
2022-12-18T16:08:07.986Z,-2.90
2022-12-18T16:12:21.919Z,-3.00
2022-12-18T16:16:23.389Z,-2.74
2022-12-18T16:20:25.583Z,-3.04
2022-12-18T16:24:32.223Z,-3.39
2022-12-18T16:28:33.667Z,-3.24
2022-12-18T16:32:35.153Z,-3.37
2022-12-18T16:36:36.572Z,-3.43
2022-12-18T16:40:59.173Z,-3.45
2022-12-18T16:45:01.356Z,-3.48
2022-12-18T16:49:02.948Z,-3.59
2022-12-18T16:53:04.361Z,-3.52
2022-12-18T16:57:05.779Z,-3.56
2022-12-18T17:01:11.544Z,-3.37
2022-12-18T17:05:13.164Z,-3.48
2022-12-18T17:09:20.629Z,-3.91
2022-12-18T17:13:27.495Z,-3.99
2022-12-18T17:17:29.004Z,-3.43
2022-12-18T17:21:30.848Z,-3.73
2022-12-18T17:25:32.462Z,-3.67
2022-12-18T17:29:34.326Z,-3.69
2022-12-18T17:33:35.738Z,-3.76
2022-12-18T17:37:37.259Z,-3.96
2022-12-18T17:41:39.097Z,-3.84
2022-12-18T17:45:41.240Z,-3.86
2022-12-18T17:49:42.753Z,-3.80
2022-12-18T17:53:45.214Z,-3.73
2022-12-18T17:57:46.685Z,-3.68
2022-12-18T18:01:48.733Z,-3.78
2022-12-18T18:05:56.107Z,-3.78
2022-12-18T18:09:57.625Z,-3.74
2022-12-18T18:14:02.744Z,-3.74
2022-12-18T18:18:04.254Z,-3.83
2022-12-18T18:22:05.697Z,-3.97
2022-12-18T18:26:09.273Z,-3.93
2022-12-18T18:30:11.399Z,-3.98
2022-12-18T18:34:24.220Z,-3.93
2022-12-18T18:38:25.682Z,-3.68
2022-12-18T18:42:27.195Z,-3.97
2022-12-18T18:46:28.811Z,-3.85
2022-12-18T18:50:30.252Z,-4.09
2022-12-18T18:54:31.780Z,-3.99
2022-12-18T18:58:33.596Z,-3.62
2022-12-18T19:02:35.316Z,-3.75
2022-12-18T19:06:36.814Z,-3.71
2022-12-18T19:10:40.671Z,-3.74
2022-12-18T19:14:42.694Z,-3.58
2022-12-18T19:18:45.023Z,-3.38
2022-12-18T19:22:55.282Z,-3.29
2022-12-18T19:26:58.253Z,-3.36
2022-12-18T19:31:02.192Z,-3.18
2022-12-18T19:35:03.955Z,-3.51
2022-12-18T19:39:12.645Z,-3.44
2022-12-18T19:43:14.614Z,-3.46
2022-12-18T19:47:16.198Z,-3.55
2022-12-18T19:51:23.051Z,-3.32
2022-12-18T19:55:24.574Z,-3.53
2022-12-18T19:59:26.322Z,-3.50
2022-12-18T20:03:32.372Z,-3.41
2022-12-18T20:07:34.418Z,-3.51
2022-12-18T20:11:36.915Z,-3.33
2022-12-18T20:15:45.430Z,-3.31
2022-12-18T20:19:47.157Z,-3.54
2022-12-18T20:23:48.975Z,-3.65
2022-12-18T20:27:50.640Z,-3.74
2022-12-18T20:31:52.626Z,-3.68
2022-12-18T20:35:54.668Z,-3.64
2022-12-18T20:39:56.774Z,-3.44
2022-12-18T20:43:59.074Z,-3.46
2022-12-18T20:48:01.562Z,-3.37
2022-12-18T20:52:03.134Z,-3.59
2022-12-18T20:56:09.709Z,-3.27
2022-12-18T21:00:12.285Z,-3.48
2022-12-18T21:04:14.788Z,-3.62
2022-12-18T21:08:21.839Z,-3.33
2022-12-18T21:12:40.556Z,-3.48
2022-12-18T21:16:46.252Z,-3.10
2022-12-18T21:20:47.762Z,-3.24
2022-12-18T21:24:49.443Z,-3.34
2022-12-18T21:28:56.071Z,-3.23
2022-12-18T21:32:57.494Z,-3.15
2022-12-18T21:37:00.327Z,-2.94
2022-12-18T21:41:09.188Z,-2.83
2022-12-18T21:45:12.062Z,-3.11
2022-12-18T21:49:14.897Z,-3.10
2022-12-18T21:53:16.359Z,-3.09
2022-12-18T21:57:18.599Z,-3.17
2022-12-18T22:01:20.116Z,-2.80
2022-12-18T22:05:21.573Z,-2.98
2022-12-18T22:09:25.087Z,-3.11
2022-12-18T22:13:26.487Z,-2.81
2022-12-18T22:17:27.962Z,-2.71
2022-12-18T22:21:34.509Z,-3.11
2022-12-18T22:25:39.690Z,-2.92
2022-12-18T22:30:00.252Z,-3.02
2022-12-18T22:34:02.171Z,-2.67
2022-12-18T22:38:03.916Z,-2.98
2022-12-18T22:42:06.407Z,-2.84
2022-12-18T22:46:17.438Z,-2.66
2022-12-18T22:50:19.104Z,-2.76
2022-12-18T22:54:21.525Z,-2.59
2022-12-18T22:58:22.959Z,-2.70
2022-12-18T23:02:24.517Z,-2.63
2022-12-18T23:06:28.177Z,-2.45
2022-12-18T23:10:29.598Z,-2.51
2022-12-18T23:14:31.774Z,-2.76
2022-12-18T23:18:33.955Z,-2.61
2022-12-18T23:22:35.358Z,-2.57
2022-12-18T23:26:36.966Z,-2.44
2022-12-18T23:30:38.421Z,-2.54
2022-12-18T23:34:39.857Z,-2.53
2022-12-18T23:38:41.621Z,-2.30
2022-12-18T23:42:43.180Z,-2.24
2022-12-18T23:46:44.621Z,-2.07
2022-12-18T23:50:46.368Z,-2.28
2022-12-18T23:54:47.781Z,-2.25
2022-12-18T23:58:52.113Z,-2.38
